createdAt,value
2019-02-07T00:01:17.818Z,26.73
2019-02-07T00:03:47.244Z,24.30
2019-02-07T00:06:16.437Z,24.33
2019-02-07T00:08:45.821Z,22.37
2019-02-07T00:11:15.147Z,29.50
2019-02-07T00:13:44.510Z,27.63
2019-02-07T00:16:13.825Z,28.17
2019-02-07T00:18:43.540Z,25.83
2019-02-07T00:21:12.751Z,27.17
2019-02-07T00:23:42.055Z,27.73
2019-02-07T00:26:11.322Z,26.57
2019-02-07T00:28:40.691Z,27.07
2019-02-07T00:31:09.976Z,30.60
2019-02-07T00:33:39.457Z,30.73
2019-02-07T00:36:08.646Z,26.10
2019-02-07T00:38:38.038Z,26.80
2019-02-07T00:41:07.294Z,26.37
2019-02-07T00:43:36.600Z,29.27
2019-02-07T00:46:06.130Z,30.33
2019-02-07T00:48:35.386Z,28.93
2019-02-07T00:51:04.762Z,31.67
2019-02-07T00:53:34.130Z,30.27
2019-02-07T00:56:03.532Z,31.90
2019-02-07T00:58:32.895Z,30.47
2019-02-07T01:01:02.246Z,29.83
2019-02-07T01:03:31.638Z,31.33
2019-02-07T01:06:00.900Z,30.43
2019-02-07T01:08:30.338Z,27.57
2019-02-07T01:10:59.672Z,32.00
2019-02-07T01:13:28.867Z,30.10
2019-02-07T01:15:58.086Z,28.30
2019-02-07T01:18:27.365Z,31.20
2019-02-07T01:20:56.868Z,31.50
2019-02-07T01:23:26.190Z,27.93
2019-02-07T01:25:55.452Z,31.00
2019-02-07T01:28:25.142Z,33.47
2019-02-07T01:30:54.492Z,27.20
2019-02-07T01:33:23.894Z,27.33
2019-02-07T01:35:53.098Z,31.90
2019-02-07T01:38:22.357Z,28.00
2019-02-07T01:40:51.710Z,29.73
2019-02-07T01:43:21.021Z,28.23
2019-02-07T01:45:50.368Z,29.40
2019-02-07T01:48:19.639Z,32.10
2019-02-07T01:50:49.008Z,31.03
2019-02-07T01:53:18.303Z,31.43
2019-02-07T01:55:47.604Z,27.83
2019-02-07T01:58:16.961Z,30.00
2019-02-07T02:00:46.204Z,26.80
2019-02-07T02:03:15.704Z,31.03
2019-02-07T02:05:44.907Z,30.43
2019-02-07T02:08:14.262Z,28.53
2019-02-07T02:10:43.676Z,29.90
2019-02-07T02:13:12.942Z,28.23
2019-02-07T02:15:42.302Z,27.63
2019-02-07T02:18:11.638Z,29.43
2019-02-07T02:20:40.838Z,25.77
2019-02-07T02:23:10.170Z,21.93
2019-02-07T02:25:39.454Z,25.83
2019-02-07T02:28:08.784Z,25.37
2019-02-07T02:30:38.070Z,26.67
2019-02-07T02:33:07.416Z,26.70
2019-02-07T02:35:36.684Z,29.70
2019-02-07T02:38:05.951Z,26.53
2019-02-07T02:40:35.318Z,29.97
2019-02-07T02:43:04.688Z,26.43
2019-02-07T02:45:37.692Z,27.77
2019-02-07T02:48:05.262Z,29.67
2019-02-07T02:50:34.592Z,24.97
2019-02-07T02:53:03.880Z,24.10
2019-02-07T02:55:38.480Z,25.50
2019-02-07T02:58:08.152Z,24.43
2019-02-07T03:00:55.646Z,29.53
2019-02-07T03:03:38.674Z,29.60
2019-02-07T03:06:28.889Z,26.00
2019-02-07T03:09:17.172Z,25.87
2019-02-07T03:12:04.022Z,25.83
2019-02-07T03:14:58.513Z,30.73
2019-02-07T03:17:46.795Z,26.57
2019-02-07T03:20:34.006Z,28.13
2019-02-07T03:23:16.518Z,27.93
2019-02-07T03:26:16.599Z,31.97
2019-02-07T03:29:04.868Z,34.60
2019-02-07T03:32:08.247Z,28.63
2019-02-07T03:35:08.871Z,28.73
2019-02-07T03:38:06.176Z,33.40
2019-02-07T03:40:57.331Z,29.27
2019-02-07T03:43:38.884Z,33.27
2019-02-07T03:46:28.420Z,29.90
2019-02-07T03:49:14.384Z,35.13
2019-02-07T03:52:01.804Z,29.60
2019-02-07T03:54:52.929Z,31.23
2019-02-07T03:57:50.459Z,38.03
2019-02-07T04:00:51.032Z,30.20
2019-02-07T04:03:48.784Z,32.47
2019-02-07T04:06:25.591Z,31.70
2019-02-07T04:09:14.367Z,29.33
2019-02-07T04:12:20.742Z,27.87
2019-02-07T04:15:19.510Z,31.10
2019-02-07T04:18:06.284Z,31.23
2019-02-07T04:21:00.408Z,29.93
2019-02-07T04:23:48.686Z,30.97
2019-02-07T04:26:49.251Z,28.10
2019-02-07T04:29:35.205Z,26.50
2019-02-07T04:32:27.872Z,30.10
2019-02-07T04:35:08.212Z,30.03
2019-02-07T04:37:48.144Z,28.83
2019-02-07T04:40:29.130Z,28.27
2019-02-07T04:43:16.130Z,28.63
2019-02-07T04:46:10.534Z,31.80
2019-02-07T04:49:07.653Z,29.47
2019-02-07T04:52:05.207Z,29.93
2019-02-07T04:54:57.236Z,24.57
2019-02-07T04:57:41.324Z,24.73
2019-02-07T05:00:50.864Z,26.07
2019-02-07T05:03:37.691Z,25.57
2019-02-07T05:06:31.981Z,27.83
2019-02-07T05:09:20.287Z,30.63
2019-02-07T05:11:56.898Z,27.43
2019-02-07T05:14:43.922Z,27.70
2019-02-07T05:17:35.384Z,31.63
2019-02-07T05:20:28.141Z,33.90
2019-02-07T05:23:16.036Z,30.77
2019-02-07T05:26:13.413Z,30.63
2019-02-07T05:29:02.058Z,29.23
2019-02-07T05:31:49.262Z,35.43
2019-02-07T05:34:37.567Z,30.77
2019-02-07T05:37:25.821Z,28.27
2019-02-07T05:40:10.973Z,28.07
2019-02-07T05:43:08.209Z,31.57
2019-02-07T05:46:05.520Z,26.43
2019-02-07T05:49:09.339Z,23.97
2019-02-07T05:52:00.502Z,22.07
2019-02-07T05:55:00.930Z,23.70
2019-02-07T05:57:44.190Z,25.67
2019-02-07T06:00:35.440Z,22.53
2019-02-07T06:03:29.540Z,25.33
2019-02-07T06:06:29.743Z,24.53
2019-02-07T06:09:18.293Z,24.33
2019-02-07T06:12:12.416Z,23.83
2019-02-07T06:15:10.102Z,23.00
2019-02-07T06:18:04.414Z,23.43
2019-02-07T06:21:00.367Z,21.40
2019-02-07T06:23:57.847Z,21.10
2019-02-07T06:26:44.903Z,21.93
2019-02-07T06:29:33.147Z,22.47
2019-02-07T06:32:24.401Z,22.70
2019-02-07T06:35:21.797Z,23.40
2019-02-07T06:38:08.320Z,20.47
2019-02-07T06:40:53.808Z,21.67
2019-02-07T06:43:42.315Z,19.87
2019-02-07T06:46:24.021Z,23.73
2019-02-07T06:49:10.961Z,24.87
2019-02-07T06:51:49.874Z,22.47
2019-02-07T06:54:36.840Z,23.53
2019-02-07T06:57:24.279Z,24.70
2019-02-07T07:00:00.755Z,21.43
2019-02-07T07:02:55.088Z,25.33
2019-02-07T07:05:43.382Z,24.00
2019-02-07T07:08:37.587Z,20.73
2019-02-07T07:11:25.420Z,23.67
2019-02-07T07:14:14.263Z,24.97
2019-02-07T07:16:54.681Z,23.10
2019-02-07T07:19:41.743Z,21.77
2019-02-07T07:22:33.364Z,22.97
2019-02-07T07:25:21.055Z,22.83
2019-02-07T07:28:18.774Z,22.87
2019-02-07T07:31:13.366Z,25.60
2019-02-07T07:34:01.745Z,22.70
2019-02-07T07:36:49.055Z,22.70
2019-02-07T07:39:36.168Z,24.27
2019-02-07T07:42:42.614Z,22.37
2019-02-07T07:45:29.519Z,22.90
2019-02-07T07:48:16.559Z,22.13
2019-02-07T07:51:01.103Z,20.03
2019-02-07T07:53:49.477Z,24.00
2019-02-07T07:56:36.353Z,26.20
2019-02-07T07:59:33.366Z,28.47
2019-02-07T08:02:25.555Z,25.83
2019-02-07T08:05:17.131Z,26.83
2019-02-07T08:07:58.661Z,21.63
2019-02-07T08:10:45.871Z,25.27
2019-02-07T08:13:21.874Z,24.70
2019-02-07T08:16:25.579Z,22.60
2019-02-07T08:19:15.347Z,22.63
2019-02-07T08:22:22.006Z,23.73
2019-02-07T08:25:19.540Z,22.43
2019-02-07T08:28:08.450Z,21.33
2019-02-07T08:31:04.971Z,23.07
2019-02-07T08:34:04.703Z,22.13
2019-02-07T08:36:54.652Z,21.07
2019-02-07T08:39:45.959Z,20.07
2019-02-07T08:42:48.606Z,21.57
2019-02-07T08:45:35.930Z,21.50
2019-02-07T08:48:24.680Z,19.83
2019-02-07T08:51:19.059Z,21.37
2019-02-07T08:54:13.895Z,20.97
2019-02-07T08:57:11.395Z,20.90
2019-02-07T08:59:58.467Z,21.00
2019-02-07T09:03:02.239Z,21.50
2019-02-07T09:05:49.726Z,20.37
2019-02-07T09:08:53.115Z,19.23
2019-02-07T09:11:36.949Z,21.57
2019-02-07T09:14:37.643Z,23.33
2019-02-07T09:17:22.677Z,22.40
2019-02-07T09:20:23.347Z,24.20
2019-02-07T09:23:17.701Z,22.03
2019-02-07T09:26:11.622Z,22.60
2019-02-07T09:29:12.005Z,21.43
2019-02-07T09:31:59.123Z,21.10
2019-02-07T09:34:56.583Z,19.43
2019-02-07T09:37:47.647Z,20.80
2019-02-07T09:40:34.835Z,21.70
2019-02-07T09:43:16.643Z,21.00
2019-02-07T09:46:07.931Z,22.47
2019-02-07T09:49:02.470Z,20.63
2019-02-07T09:51:50.805Z,21.83
2019-02-07T09:54:51.247Z,20.23
2019-02-07T09:57:51.539Z,20.83
2019-02-07T10:00:34.429Z,20.23
2019-02-07T10:03:29.290Z,20.83
2019-02-07T10:06:29.810Z,20.53
2019-02-07T10:09:10.066Z,21.17
2019-02-07T10:12:16.486Z,22.40
2019-02-07T10:15:04.772Z,23.77
2019-02-07T10:17:47.869Z,20.53
2019-02-07T10:20:37.409Z,22.23
2019-02-07T10:23:25.972Z,20.83
2019-02-07T10:26:32.815Z,20.93
2019-02-07T10:29:30.177Z,21.77
2019-02-07T10:32:16.973Z,22.13
2019-02-07T10:35:22.855Z,21.33
2019-02-07T10:38:10.332Z,22.03
2019-02-07T10:40:51.547Z,22.03
2019-02-07T10:43:36.186Z,21.67
2019-02-07T10:46:23.417Z,20.10
2019-02-07T10:49:11.935Z,23.23
2019-02-07T10:52:02.994Z,23.67
2019-02-07T10:54:51.742Z,21.23
2019-02-07T10:57:38.975Z,23.33
2019-02-07T11:00:34.024Z,23.97
2019-02-07T11:03:21.247Z,23.87
2019-02-07T11:06:08.209Z,24.20
2019-02-07T11:09:16.717Z,21.70
2019-02-07T11:12:23.571Z,24.07
2019-02-07T11:15:23.855Z,24.00
2019-02-07T11:18:03.098Z,24.10
2019-02-07T11:21:06.409Z,24.67
2019-02-07T11:23:53.277Z,24.57
2019-02-07T11:26:41.070Z,24.10
2019-02-07T11:29:35.212Z,23.60
2019-02-07T11:32:42.111Z,24.07
2019-02-07T11:35:33.434Z,25.40
2019-02-07T11:38:33.700Z,26.00
2019-02-07T11:41:38.720Z,26.83
2019-02-07T11:44:35.886Z,24.87
2019-02-07T11:47:24.150Z,27.53
2019-02-07T11:50:18.386Z,26.60
2019-02-07T11:53:15.604Z,25.40
2019-02-07T11:56:02.904Z,25.47
2019-02-07T11:59:01.432Z,26.83
2019-02-07T12:01:50.518Z,26.37
2019-02-07T12:04:47.918Z,25.33
2019-02-07T12:07:38.924Z,23.97
2019-02-07T12:10:29.318Z,25.10
2019-02-07T12:13:16.234Z,23.47
2019-02-07T12:16:04.477Z,25.33
2019-02-07T12:19:04.766Z,25.43
2019-02-07T12:21:47.035Z,23.20
2019-02-07T12:24:35.315Z,24.90
2019-02-07T12:27:25.429Z,26.53
2019-02-07T12:30:11.382Z,24.07
2019-02-07T12:33:02.514Z,26.10
2019-02-07T12:35:49.971Z,27.90
2019-02-07T12:38:41.268Z,24.97
2019-02-07T12:41:33.086Z,25.00
2019-02-07T12:44:21.405Z,25.17
2019-02-07T12:47:01.277Z,24.83
2019-02-07T12:49:49.629Z,25.27
2019-02-07T12:52:50.022Z,25.57
2019-02-07T12:55:52.251Z,24.90
2019-02-07T12:58:39.134Z,26.93
2019-02-07T13:01:28.085Z,24.30
2019-02-07T13:04:11.011Z,25.07
2019-02-07T13:07:14.683Z,25.97
2019-02-07T13:10:01.212Z,26.37
2019-02-07T13:12:44.423Z,26.93
2019-02-07T13:15:31.679Z,27.20
2019-02-07T13:18:11.680Z,26.83
2019-02-07T13:21:02.684Z,27.20
2019-02-07T13:23:56.376Z,26.73
2019-02-07T13:26:43.241Z,26.90
2019-02-07T13:29:46.718Z,28.03
2019-02-07T13:32:46.850Z,28.60
2019-02-07T13:35:37.880Z,28.17
2019-02-07T13:38:33.789Z,31.90
2019-02-07T13:41:31.326Z,30.57
2019-02-07T13:44:25.462Z,30.63
2019-02-07T13:47:13.752Z,31.37
2019-02-07T13:50:05.077Z,32.57
2019-02-07T13:52:52.393Z,32.33
2019-02-07T13:55:33.533Z,29.77
2019-02-07T13:58:27.885Z,30.70
2019-02-07T14:01:12.139Z,29.53
2019-02-07T14:04:00.540Z,31.63
2019-02-07T14:06:47.762Z,30.13
2019-02-07T14:09:35.950Z,31.47
2019-02-07T14:12:24.471Z,30.30
2019-02-07T14:15:11.704Z,32.53
2019-02-07T14:17:58.994Z,30.67
2019-02-07T14:21:05.877Z,31.40
2019-02-07T14:24:03.258Z,30.77
2019-02-07T14:26:44.423Z,32.33
2019-02-07T14:29:38.992Z,31.53
2019-02-07T14:32:27.134Z,31.67
2019-02-07T14:35:08.145Z,30.93
2019-02-07T14:37:55.380Z,32.33
2019-02-07T14:40:38.084Z,34.20
2019-02-07T14:43:41.567Z,34.50
2019-02-07T14:46:39.155Z,32.80
2019-02-07T14:49:08.450Z,34.40
2019-02-07T14:51:37.750Z,36.07
2019-02-07T14:54:07.138Z,34.00
2019-02-07T14:56:36.355Z,35.77
2019-02-07T14:59:05.885Z,35.53
2019-02-07T15:01:35.335Z,34.77
2019-02-07T15:04:04.951Z,36.73
2019-02-07T15:06:34.312Z,36.47
2019-02-07T15:09:05.277Z,34.23
2019-02-07T15:11:34.692Z,37.07
2019-02-07T15:14:04.007Z,37.60
2019-02-07T15:16:33.466Z,37.47
2019-02-07T15:19:02.809Z,35.23
2019-02-07T15:21:32.120Z,36.30
2019-02-07T15:24:01.302Z,35.80
2019-02-07T15:26:30.570Z,36.23
2019-02-07T15:28:59.921Z,36.90
2019-02-07T15:31:29.314Z,36.40
2019-02-07T15:33:58.513Z,37.10
2019-02-07T15:36:27.796Z,36.70
2019-02-07T15:38:57.090Z,40.17
2019-02-07T15:41:26.652Z,38.50
2019-02-07T15:43:56.003Z,39.20
2019-02-07T15:46:25.912Z,40.90
2019-02-07T15:48:55.290Z,37.80
2019-02-07T15:51:24.648Z,39.43
2019-02-07T15:53:54.042Z,38.53
2019-02-07T15:56:24.903Z,38.90
2019-02-07T15:59:14.250Z,38.67
2019-02-07T16:02:00.542Z,40.97
2019-02-07T16:04:33.544Z,37.33
2019-02-07T16:07:02.870Z,41.93
2019-02-07T16:09:32.242Z,40.83
2019-02-07T16:12:01.682Z,39.73
2019-02-07T16:14:31.731Z,39.97
2019-02-07T16:17:02.589Z,42.50
2019-02-07T16:19:32.410Z,39.80
2019-02-07T16:22:01.896Z,39.03
2019-02-07T16:24:31.282Z,38.37
2019-02-07T16:27:00.658Z,40.67
2019-02-07T16:29:30.008Z,39.83
2019-02-07T16:31:59.566Z,37.27
2019-02-07T16:34:28.998Z,42.13
2019-02-07T16:36:58.366Z,38.10
2019-02-07T16:39:28.170Z,41.03
2019-02-07T16:42:05.823Z,41.17
2019-02-07T16:44:28.401Z,39.17
2019-02-07T16:46:57.688Z,42.53
2019-02-07T16:49:27.096Z,39.57
2019-02-07T16:51:56.376Z,37.47
2019-02-07T16:54:25.736Z,39.13
2019-02-07T16:56:55.108Z,104.23
2019-02-07T16:59:24.454Z,43.43
2019-02-07T17:01:53.812Z,45.30
2019-02-07T17:04:23.096Z,41.63
2019-02-07T17:06:52.500Z,109.33
2019-02-07T17:09:36.235Z,40.30
2019-02-07T17:12:06.396Z,43.57
2019-02-07T17:14:35.666Z,37.90
2019-02-07T17:17:05.553Z,39.57
2019-02-07T17:19:35.038Z,38.70
2019-02-07T17:22:04.574Z,39.70
2019-02-07T17:24:33.772Z,39.70
2019-02-07T17:27:03.441Z,39.47
2019-02-07T17:29:32.895Z,41.97
2019-02-07T17:32:02.183Z,41.97
2019-02-07T17:34:31.432Z,43.13
2019-02-07T17:37:00.652Z,42.17
2019-02-07T17:39:29.931Z,43.57
2019-02-07T17:41:59.648Z,45.17
2019-02-07T17:44:29.134Z,44.03
2019-02-07T17:46:58.596Z,45.47
2019-02-07T17:49:27.940Z,44.83
2019-02-07T17:51:57.121Z,44.70
2019-02-07T17:54:26.473Z,46.43
2019-02-07T17:56:55.830Z,44.73
2019-02-07T17:59:25.200Z,46.17
2019-02-07T18:01:54.480Z,46.37
2019-02-07T18:04:23.797Z,51.00
2019-02-07T18:06:53.083Z,45.77
2019-02-07T18:09:22.519Z,48.30
2019-02-07T18:11:51.886Z,47.43
2019-02-07T18:14:21.316Z,47.67
2019-02-07T18:16:50.595Z,48.13
2019-02-07T18:19:20.004Z,62.83
2019-02-07T18:21:49.607Z,53.33
2019-02-07T18:24:18.977Z,49.67
2019-02-07T18:26:48.323Z,47.07
2019-02-07T18:29:17.713Z,49.93
2019-02-07T18:31:47.130Z,53.10
2019-02-07T18:34:16.474Z,49.97
2019-02-07T18:36:45.802Z,51.13
2019-02-07T18:39:15.160Z,53.27
2019-02-07T18:41:44.480Z,56.43
2019-02-07T18:44:14.134Z,53.57
2019-02-07T18:46:43.411Z,50.50
2019-02-07T18:49:12.761Z,51.27
2019-02-07T18:51:45.621Z,50.37
2019-02-07T18:54:13.190Z,49.07
2019-02-07T18:56:42.535Z,47.53
2019-02-07T18:59:12.102Z,49.13
2019-02-07T19:01:41.381Z,48.13
2019-02-07T19:04:10.642Z,47.90
2019-02-07T19:06:40.085Z,49.83
2019-02-07T19:09:10.302Z,49.83
2019-02-07T19:11:39.494Z,49.40
2019-02-07T19:14:09.105Z,49.57
2019-02-07T19:16:38.789Z,51.23
2019-02-07T19:19:08.062Z,49.53
2019-02-07T19:21:37.404Z,50.13
2019-02-07T19:24:06.787Z,52.33
2019-02-07T19:26:36.140Z,51.43
2019-02-07T19:29:06.258Z,49.30
2019-02-07T19:31:35.538Z,51.17
2019-02-07T19:34:05.028Z,51.07
2019-02-07T19:36:34.371Z,47.03
2019-02-07T19:39:05.281Z,49.07
2019-02-07T19:41:34.635Z,49.73
2019-02-07T19:44:04.585Z,48.93
2019-02-07T19:46:34.009Z,52.27
2019-02-07T19:49:03.438Z,50.80
2019-02-07T19:51:32.767Z,52.20
2019-02-07T19:54:02.139Z,49.80
2019-02-07T19:56:31.526Z,53.63
2019-02-07T19:59:00.887Z,53.63
2019-02-07T20:01:30.248Z,54.40
2019-02-07T20:03:59.572Z,52.17
2019-02-07T20:06:28.931Z,55.47
2019-02-07T20:08:58.274Z,53.70
2019-02-07T20:11:27.762Z,51.17
2019-02-07T20:13:57.244Z,49.23
2019-02-07T20:16:26.542Z,54.60
2019-02-07T20:18:55.909Z,57.13
2019-02-07T20:21:25.251Z,61.40
2019-02-07T20:23:54.642Z,54.40
2019-02-07T20:26:24.090Z,57.07
2019-02-07T20:28:53.472Z,64.77
2019-02-07T20:31:22.868Z,94.53
2019-02-07T20:33:52.195Z,63.30
2019-02-07T20:36:21.577Z,142.83
2019-02-07T20:38:50.936Z,71.77
2019-02-07T20:41:20.305Z,79.67
2019-02-07T20:43:49.675Z,56.83
2019-02-07T20:46:19.061Z,56.03
2019-02-07T20:48:48.797Z,54.00
2019-02-07T20:51:18.171Z,56.93
2019-02-07T20:53:47.471Z,85.77
2019-02-07T20:56:16.683Z,171.33
2019-02-07T20:58:45.988Z,54.60
2019-02-07T21:01:15.364Z,51.83
2019-02-07T21:03:44.601Z,53.37
2019-02-07T21:06:14.289Z,52.30
2019-02-07T21:08:43.639Z,54.10
2019-02-07T21:11:13.037Z,54.50
2019-02-07T21:13:42.321Z,53.83
2019-02-07T21:16:11.677Z,53.73
2019-02-07T21:18:41.088Z,53.20
2019-02-07T21:21:10.439Z,58.87
2019-02-07T21:23:39.687Z,56.80
2019-02-07T21:26:08.902Z,59.20
2019-02-07T21:28:38.284Z,60.97
2019-02-07T21:31:07.641Z,59.60
2019-02-07T21:33:37.035Z,60.20
2019-02-07T21:36:06.379Z,59.20
2019-02-07T21:38:35.938Z,62.87
2019-02-07T21:41:05.394Z,87.00
2019-02-07T21:43:35.837Z,80.43
2019-02-07T21:46:05.377Z,60.90
2019-02-07T21:48:34.741Z,64.00
2019-02-07T21:51:04.103Z,66.73
2019-02-07T21:53:33.403Z,70.90
2019-02-07T21:56:02.820Z,93.33
2019-02-07T21:58:32.159Z,61.77
2019-02-07T22:01:01.431Z,61.63
2019-02-07T22:03:30.875Z,63.90
2019-02-07T22:06:00.113Z,57.73
2019-02-07T22:08:29.386Z,59.43
2019-02-07T22:10:58.688Z,56.43
2019-02-07T22:13:27.913Z,55.57
2019-02-07T22:15:57.289Z,62.77
2019-02-07T22:18:26.634Z,71.90
2019-02-07T22:20:55.937Z,58.87
2019-02-07T22:23:25.270Z,58.73
2019-02-07T22:25:54.865Z,60.67
2019-02-07T22:28:24.224Z,61.73
2019-02-07T22:30:53.545Z,60.23
2019-02-07T22:33:22.870Z,58.10
2019-02-07T22:35:52.062Z,78.40
2019-02-07T22:38:21.329Z,62.17
2019-02-07T22:40:50.987Z,62.37
2019-02-07T22:43:20.248Z,59.50
2019-02-07T22:45:49.588Z,63.60
2019-02-07T22:48:18.885Z,61.63
2019-02-07T22:50:48.165Z,66.17
2019-02-07T22:53:17.452Z,61.37
2019-02-07T22:55:47.139Z,62.83
2019-02-07T22:58:16.456Z,62.27
2019-02-07T23:01:27.431Z,55.87
2019-02-07T23:04:02.047Z,61.07
2019-02-07T23:06:31.555Z,58.30
2019-02-07T23:09:01.568Z,56.60
2019-02-07T23:11:30.999Z,57.80
2019-02-07T23:14:00.381Z,57.57
2019-02-07T23:16:37.363Z,60.27
2019-02-07T23:19:06.410Z,61.20
2019-02-07T23:21:35.972Z,60.73
2019-02-07T23:24:06.257Z,59.63
2019-02-07T23:26:35.714Z,60.57
2019-02-07T23:29:08.616Z,55.60
2019-02-07T23:31:37.961Z,58.30
2019-02-07T23:34:07.767Z,58.47
2019-02-07T23:36:37.211Z,59.57
2019-02-07T23:39:10.330Z,57.27
2019-02-07T23:41:39.807Z,56.13
2019-02-07T23:44:09.774Z,56.33
2019-02-07T23:46:39.211Z,52.93
2019-02-07T23:49:08.770Z,51.50
2019-02-07T23:51:38.190Z,50.80
2019-02-07T23:54:07.738Z,51.97
2019-02-07T23:56:37.512Z,49.77
2019-02-07T23:59:07.301Z,52.33
